Main page
METAR-TAF:

METAR-TAF

Airports :

Oswego County Airport

Fulton, New York, United States

latitude: 43-21-03N, longitude: 076-23-17W, elevation: 476 ft

Current weather observation

The report was made 38 minutes ago, at 03:54 UTC
Wind 13 mph from the West/Northwest
Temperature 21°F
Humidity 58%
Pressure 30.48 in. Hg
Visibility: 10 miles
Overcast at a height of 4100 ft

METAR: KFZY 210354Z AUTO 30011KT 10SM OVC041 M06/M13 A3048 RMK AO2 SLP331 T10611133

Time: 23:32 (04:32 UTC)


TAF: missing

Weather observations and forecasts of more than 4000 airports (METAR and TAF reports).

The available stations are represented by yellow and red dots on the map.

Hover mouse over dot to see the name of the station.

Then click to see weather observations and forecasts.

To change the map : click on the green buttons with a black cross to zoom in, on the green button with a dash to zoom out, or on the green arrows for adjacent maps.


METAR-TAF: